»·PEaware :: PH-KIM KSMX-KSBP

PH-KIM :: KSMX-KSBP

FLIGHT INFORMATION

Flight Status: Arrived
Operator: Privately registered:
Netherlands
More flights under this callsign
Pilot: Kim B. (19519)
Aircraft: Unknown
(DA62)
More flights by this aircraft type
Origin: KSMX Santa Maria Pub/Capt Hancock
United States
Destination: KSBP San Luis Co Regl
United States
More flights between these airports :: More routes between these airports
Route: +FLOUT5 RZS
File this flight plan on PilotEdge
Remarks: I-10 rating
Altitude:
(Current/Filed)
4,000ft
Speed:
(Current/Filed)
140kts
Departed: 13-Sep-18 04:50 PM
Arrived: 13-Sep-18 05:32 PM
Distance/Time
Traveled:
22nm/0:42
Distance/Time
To Go:
Arrived

Flight Plot

Page will automatically refresh every two minutes.

Flight plan parsing failed; only flown route is shown


Map Options




Map Legend


Flown Route
Filed Route
Departure Airport
Arrival Airport
Navaid (VOR, NDB)
Fix

Horizontal Profiles

Position Reports

Time Latitude Longitude Heading Altitude Ground
Speed
13-Sep-18 16:51 35.003519 -120.565022 227 2310ft 126kts
13-Sep-18 16:52 34.970971 -120.565950 144 3057ft 129kts
13-Sep-18 16:53 34.954769 -120.528337 115 3821ft 123kts
13-Sep-18 16:54 34.969558 -120.502035 326 4014ft 132kts
13-Sep-18 16:55 34.990978 -120.538927 301 4005ft 136kts
13-Sep-18 16:56 34.978007 -120.575478 206 4003ft 146kts
13-Sep-18 16:57 34.943478 -120.554869 92 4003ft 164kts
13-Sep-18 16:58 34.961807 -120.507452 18 4005ft 147kts
13-Sep-18 16:59 34.991075 -120.527546 305 3999ft 127kts
13-Sep-18 17:00 34.996896 -120.561998 204 4058ft 141kts
13-Sep-18 17:01 34.964487 -120.528954 132 3987ft 163kts
13-Sep-18 17:02 34.956523 -120.491349 348 4118ft 133kts
13-Sep-18 17:03 34.984161 -120.519573 315 3603ft 136kts
13-Sep-18 17:04 34.995231 -120.550791 234 3577ft 122kts
13-Sep-18 17:05 34.963379 -120.536541 149 3760ft 133kts
13-Sep-18 17:06 34.948957 -120.499217 61 4020ft 142kts
13-Sep-18 17:07 34.971036 -120.456722 29 4005ft 146kts
13-Sep-18 17:08 35.000026 -120.473733 314 4007ft 124kts
13-Sep-18 17:09 35.024364 -120.503285 306 4005ft 122kts
13-Sep-18 17:10 35.045712 -120.535726 306 4004ft 122kts
13-Sep-18 17:11 35.067002 -120.568123 306 4001ft 122kts
13-Sep-18 17:12 35.091844 -120.596335 317 4000ft 123kts
13-Sep-18 17:13 35.118109 -120.622911 316 4000ft 123kts
13-Sep-18 17:14 35.144563 -120.649815 317 3999ft 123kts
13-Sep-18 17:15 35.171104 -120.676850 316 4002ft 124kts
13-Sep-18 17:16 35.195786 -120.701999 316 4001ft 124kts
13-Sep-18 17:17 35.220522 -120.727247 320 3983ft 137kts
13-Sep-18 17:18 35.247962 -120.759902 295 3993ft 139kts
13-Sep-18 17:19 35.256507 -120.807067 277 3702ft 155kts
13-Sep-18 17:20 35.267222 -120.853338 310 3497ft 132kts
13-Sep-18 17:21 35.294064 -120.883008 320 3499ft 129kts
13-Sep-18 17:22 35.322160 -120.910499 321 3499ft 129kts
13-Sep-18 17:23 35.327971 -120.938598 185 3506ft 134kts
13-Sep-18 17:24 35.293274 -120.919402 147 3500ft 141kts
13-Sep-18 17:25 35.266403 -120.886150 106 3501ft 141kts
13-Sep-18 17:26 35.259648 -120.837176 96 3144ft 144kts
13-Sep-18 17:27 35.255230 -120.790906 96 2793ft 124kts
13-Sep-18 17:28 35.251440 -120.752696 99 2686ft 112kts
13-Sep-18 17:29 35.245949 -120.713981 99 2169ft 108kts
13-Sep-18 17:30 35.241012 -120.679458 99 1637ft 92kts
13-Sep-18 17:31 35.234571 -120.648071 123 951ft 88kts
13-Sep-18 17:32 35.223557 -120.627683 133 727ft 84kts
13-Sep-18 17:33 35.232451 -120.632353 302 250ft 91kts
13-Sep-18 17:34 35.239850 -120.644032 48 175ft 0kts
13-Sep-18 17:35 35.239850 -120.644032 48 175ft 0kts
13-Sep-18 17:36 35.239325 -120.642635 128 180ft 24kts
13-Sep-18 17:37 35.238602 -120.639893 264 191ft 0kts
13-Sep-18 17:38 35.238602 -120.639893 264 191ft 0kts
13-Sep-18 17:39 35.238602 -120.639893 264 191ft 0kts
13-Sep-18 17:40 35.238602 -120.639893 264 191ft 0kts
13-Sep-18 17:41 35.238602 -120.639893 264 191ft 0kts
13-Sep-18 17:42 35.238602 -120.639893 264 191ft 0kts
13-Sep-18 17:43 35.238602 -120.639893 264 191ft 0kts
13-Sep-18 17:44 35.238602 -120.639893 264 191ft 0kts
13-Sep-18 17:45 35.238602 -120.639893 264 191ft 0kts
13-Sep-18 17:46 35.238602 -120.639893 264 191ft 0kts
13-Sep-18 17:47 35.238602 -120.639893 264 191ft 0kts
13-Sep-18 17:48 35.238602 -120.639893 264 191ft 0kts
13-Sep-18 17:49 35.238602 -120.639893 264 191ft 0kts

Navigation Log

Ident Type
Flight plan parsing failed, navigation log unavailable